Time;durP1;ratioP1;P1;durP2;ratioP2;P2;SDS_P1;SDS_P2;PMS_P1;PMS_P2;Temp;Humidity;BMP_temperature;BMP_pressure;BME280_temperature;BME280_humidity;BME280_pressure;Samples;Min_cycle;Max_cycle;Signal;HPM_P1;HPM_P2
2023/07/24 00:00:40;;;;;;;12.43;3.70;;;18.60;1.00;;;;;;5069898;28;20425;-74
2023/07/24 00:03:05;;;;;;;12.95;4.63;;;18.50;86.80;;;;;;5069866;28;20407;-74
2023/07/24 00:05:31;;;;;;;11.07;3.83;;;18.40;92.00;;;;;;5069141;28;20894;-74
2023/07/24 00:07:57;;;;;;;14.50;4.30;;;18.40;99.90;;;;;;5070097;28;20837;-74
2023/07/24 00:10:22;;;;;;;13.33;4.10;;;18.40;99.90;;;;;;5069990;28;20392;-74
2023/07/24 00:12:48;;;;;;;19.13;4.27;;;18.40;95.80;;;;;;5070333;28;20384;-74
2023/07/24 00:15:13;;;;;;;13.03;4.70;;;18.40;99.90;;;;;;5069706;28;20399;-74
2023/07/24 00:17:39;;;;;;;11.57;4.40;;;18.50;99.90;;;;;;5069625;28;20410;-74
2023/07/24 00:20:06;;;;;;;11.27;3.95;;;18.70;95.00;;;;;;5069880;28;20441;-74
2023/07/24 00:22:31;;;;;;;16.17;4.60;;;18.60;97.00;;;;;;5069807;28;20457;-74
2023/07/24 00:24:57;;;;;;;9.87;3.83;;;18.60;98.40;;;;;;5069276;28;20965;-74
2023/07/24 00:27:22;;;;;;;12.20;4.63;;;18.50;86.00;;;;;;5069627;28;20423;-74
2023/07/24 00:29:48;;;;;;;9.75;3.55;;;18.50;99.90;;;;;;5069501;28;20763;-74
2023/07/24 00:32:13;;;;;;;14.15;4.18;;;18.50;77.90;;;;;;5069984;28;20395;-74
2023/07/24 00:34:39;;;;;;;12.90;4.13;;;18.40;23.00;;;;;;5074942;28;20387;-74
2023/07/24 00:37:05;;;;;;;14.80;4.40;;;18.40;41.00;;;;;;5075410;28;20455;-73
2023/07/24 00:39:30;;;;;;;11.87;4.40;;;18.50;22.90;;;;;;5069415;28;20402;-74
2023/07/24 00:41:56;;;;;;;9.60;3.90;;;18.40;31.70;;;;;;5069466;28;20402;-74
2023/07/24 00:44:22;;;;;;;15.43;4.88;;;18.40;46.20;;;;;;5069540;28;20491;-75
2023/07/24 00:46:47;;;;;;;9.00;3.90;;;18.40;43.40;;;;;;5069359;28;20799;-75
2023/07/24 00:49:13;;;;;;;11.80;4.15;;;18.50;46.40;;;;;;5069283;28;20431;-76
2023/07/24 00:51:39;;;;;;;12.48;4.45;;;18.50;36.00;;;;;;5069343;28;20399;-74
2023/07/24 00:54:06;;;;;;;12.75;4.70;;;18.50;14.90;;;;;;5068187;28;20849;-74
2023/07/24 00:56:33;;;;;;;12.27;4.03;;;18.50;4.60;;;;;;5069667;28;20383;-74
2023/07/24 00:59:00;;;;;;;11.98;4.20;;;18.50;14.70;;;;;;5068973;28;20501;-74
2023/07/24 01:01:26;;;;;;;15.15;4.20;;;18.50;4.20;;;;;;5069140;28;20391;-75
2023/07/24 01:03:52;;;;;;;13.15;4.30;;;18.30;19.90;;;;;;5068646;28;20712;-74
2023/07/24 01:06:18;;;;;;;11.88;4.50;;;18.10;43.90;;;;;;5068836;28;20878;-74
2023/07/24 01:08:44;;;;;;;13.13;4.13;;;18.10;44.00;;;;;;5068625;28;20419;-74
2023/07/24 01:11:18;;;;;;;11.13;4.10;;;18.10;56.40;;;;;;5068680;28;20882;-74
2023/07/24 01:13:56;;;;;;;11.65;4.00;;;18.00;69.70;;;;;;5069151;28;20487;-74
2023/07/24 01:16:25;;;;;;;11.43;4.18;;;18.00;92.90;;;;;;5069179;28;20399;-75
2023/07/24 01:18:53;;;;;;;11.48;3.90;;;18.00;95.40;;;;;;5068667;28;20396;-75
2023/07/24 01:21:32;;;;;;;10.10;3.83;;;18.00;99.90;;;;;;5069187;28;20398;-75
2023/07/24 01:24:11;;;;;;;11.88;4.28;;;18.00;87.80;;;;;;5069194;28;20384;-76
2023/07/24 01:26:37;;;;;;;13.90;3.97;;;18.00;90.30;;;;;;5068681;28;20399;-75
2023/07/24 01:29:03;;;;;;;13.98;4.20;;;18.10;70.20;;;;;;5069700;28;20419;-75
2023/07/24 01:31:28;;;;;;;11.80;3.60;;;18.20;21.40;;;;;;5069404;28;20448;-76
2023/07/24 01:33:54;;;;;;;11.00;3.90;;;18.10;26.60;;;;;;5052909;28;20585;-74
2023/07/24 01:36:20;;;;;;;14.27;4.00;;;18.10;17.70;;;;;;5072371;28;20750;-74
2023/07/24 01:38:47;;;;;;;13.63;4.70;;;18.20;43.10;;;;;;5072630;28;20948;-74
2023/07/24 01:41:12;;;;;;;10.60;4.10;;;18.20;13.30;;;;;;5072690;28;20384;-74
2023/07/24 01:43:38;;;;;;;10.98;3.80;;;18.30;1.00;;;;;;5072293;28;20407;-74
2023/07/24 01:46:03;;;;;;;12.23;4.15;;;18.20;15.00;;;;;;5072281;28;20384;-74
2023/07/24 01:48:29;;;;;;;12.70;4.32;;;18.30;26.80;;;;;;5071876;28;20404;-75
2023/07/24 01:50:54;;;;;;;9.97;3.67;;;18.30;1.00;;;;;;5072144;28;20396;-74
2023/07/24 01:53:20;;;;;;;12.60;4.57;;;18.30;1.00;;;;;;5072182;28;20894;-75
2023/07/24 01:55:45;;;;;;;13.03;3.50;;;18.40;1.00;;;;;;5071997;28;20809;-76
2023/07/24 01:58:11;;;;;;;10.50;3.60;;;18.40;1.00;;;;;;5071948;28;20384;-76
2023/07/24 02:00:36;;;;;;;10.07;3.67;;;18.40;1.00;;;;;;5072380;28;20379;-75
2023/07/24 02:03:02;;;;;;;10.30;4.20;;;18.50;1.00;;;;;;5072646;28;20438;-75
2023/07/24 02:05:27;;;;;;;13.70;4.30;;;18.60;1.00;;;;;;5072015;28;20387;-75
2023/07/24 02:07:53;;;;;;;11.87;5.03;;;18.70;1.00;;;;;;5072161;28;20411;-76
2023/07/24 02:10:18;;;;;;;10.30;4.03;;;18.60;9.10;;;;;;5072105;28;20418;-75
2023/07/24 02:12:44;;;;;;;14.07;4.45;;;18.70;1.00;;;;;;5072069;28;20419;-75
2023/07/24 02:15:09;;;;;;;9.90;3.13;;;18.70;1.00;;;;;;5071649;28;20421;-75
2023/07/24 02:17:35;;;;;;;11.70;4.07;;;18.70;1.00;;;;;;5072474;28;20404;-74
2023/07/24 02:20:01;;;;;;;11.97;4.10;;;18.60;1.00;;;;;;5086595;28;20378;-74
2023/07/24 02:22:26;;;;;;;12.45;4.75;;;18.70;1.00;;;;;;5092018;28;20981;-74
2023/07/24 02:24:52;;;;;;;12.77;4.60;;;18.70;1.00;;;;;;5075943;28;20859;-75
2023/07/24 02:27:34;;;;;;;11.70;4.05;;;18.70;10.20;;;;;;5073367;28;20411;-74
2023/07/24 02:30:00;;;;;;;12.30;4.90;;;18.80;11.40;;;;;;5074917;28;20406;-74
2023/07/24 02:32:25;;;;;;;10.90;4.13;;;18.70;18.50;;;;;;5078593;28;20475;-74
2023/07/24 02:34:52;;;;;;;10.13;3.83;;;18.70;1.00;;;;;;5077716;28;20434;-75
2023/07/24 02:37:18;;;;;;;10.43;4.00;;;18.70;13.40;;;;;;5081376;28;20379;-74
2023/07/24 02:39:44;;;;;;;12.32;4.30;;;18.80;48.60;;;;;;5083721;28;20383;-74
2023/07/24 02:42:10;;;;;;;14.87;4.17;;;19.00;32.20;;;;;;5081663;28;20456;-74
2023/07/24 02:44:35;;;;;;;11.02;4.22;;;19.00;21.70;;;;;;5079033;28;20763;-74
2023/07/24 02:47:01;;;;;;;11.20;4.03;;;18.90;2.20;;;;;;5077414;28;20407;-74
2023/07/24 02:49:27;;;;;;;12.40;4.18;;;19.00;7.10;;;;;;5076019;28;21217;-74
2023/07/24 02:51:52;;;;;;;11.00;3.90;;;18.90;1.00;;;;;;5074478;28;20392;-75
2023/07/24 02:54:18;;;;;;;11.47;4.63;;;18.90;1.00;;;;;;5074771;28;20407;-74
2023/07/24 02:56:43;;;;;;;11.25;3.47;;;19.00;1.00;;;;;;5089147;28;20392;-74
2023/07/24 02:59:09;;;;;;;12.88;3.90;;;19.00;1.00;;;;;;5087013;28;20912;-75
2023/07/24 03:01:34;;;;;;;10.75;4.05;;;19.00;1.00;;;;;;5075330;28;20457;-75
2023/07/24 03:04:00;;;;;;;13.27;4.30;;;19.00;1.00;;;;;;5074319;28;20399;-75
2023/07/24 03:06:25;;;;;;;10.53;4.53;;;18.90;1.00;;;;;;5073439;28;20395;-74
2023/07/24 03:08:51;;;;;;;11.17;3.83;;;18.80;1.00;;;;;;5071962;28;20821;-75
2023/07/24 03:11:17;;;;;;;10.57;3.57;;;18.60;8.20;;;;;;5071674;28;20403;-74
2023/07/24 03:13:42;;;;;;;12.10;4.17;;;18.40;27.00;;;;;;5071537;28;20478;-74
2023/07/24 03:16:08;;;;;;;11.52;3.90;;;18.40;31.90;;;;;;5053145;28;20411;-75
2023/07/24 03:18:34;;;;;;;10.20;3.57;;;18.40;1.00;;;;;;5071628;28;20878;-74
2023/07/24 03:20:59;;;;;;;15.20;4.27;;;18.40;1.00;;;;;;5071008;28;20384;-74
2023/07/24 03:23:26;;;;;;;12.60;5.00;;;18.40;6.00;;;;;;5070673;28;20763;-74
2023/07/24 03:25:51;;;;;;;12.10;5.20;;;18.50;1.00;;;;;;5071301;28;20398;-74
2023/07/24 03:28:16;;;;;;;11.47;4.43;;;18.40;7.20;;;;;;5070236;28;20500;-74
2023/07/24 03:30:42;;;;;;;12.00;3.87;;;18.40;12.70;;;;;;5069088;28;20398;-74
2023/07/24 03:33:08;;;;;;;11.02;3.90;;;18.30;30.00;;;;;;5052760;28;20886;-74
2023/07/24 03:35:33;;;;;;;14.55;4.47;;;18.10;87.10;;;;;;5070783;28;20404;-74
2023/07/24 03:37:59;;;;;;;11.40;3.70;;;18.00;99.90;;;;;;5070627;28;20422;-74
2023/07/24 03:40:25;;;;;;;10.15;3.78;;;17.90;99.90;;;;;;5067852;28;20546;-74
2023/07/24 03:42:50;;;;;;;13.60;4.45;;;17.80;99.90;;;;;;5070542;28;20924;-74
2023/07/24 03:45:16;;;;;;;11.30;4.07;;;17.70;99.90;;;;;;5070229;28;20402;-74
2023/07/24 03:47:42;;;;;;;14.40;5.37;;;17.80;99.90;;;;;;5074881;28;20427;-76
2023/07/24 03:50:07;;;;;;;10.57;3.90;;;17.80;99.90;;;;;;5071328;28;20384;-73
2023/07/24 03:52:33;;;;;;;8.52;3.75;;;17.90;99.90;;;;;;5070155;28;20421;-73
2023/07/24 03:54:59;;;;;;;12.93;4.67;;;17.80;98.30;;;;;;5070612;28;20384;-74
2023/07/24 03:57:24;;;;;;;12.27;3.63;;;18.00;54.80;;;;;;5069531;28;20787;-74
2023/07/24 03:59:50;;;;;;;9.83;3.97;;;18.10;39.70;;;;;;5069687;28;20929;-73
2023/07/24 04:02:15;;;;;;;14.13;4.60;;;18.10;17.30;;;;;;5063790;28;20469;-73
2023/07/24 04:04:41;;;;;;;12.27;4.20;;;18.20;1.00;;;;;;5068176;28;20427;-74
2023/07/24 04:07:06;;;;;;;12.30;4.10;;;18.30;1.00;;;;;;5069431;28;20806;-74
2023/07/24 04:09:32;;;;;;;11.87;4.90;;;18.40;1.00;;;;;;5069730;28;20400;-74
2023/07/24 04:11:58;;;;;;;13.47;5.03;;;18.50;1.00;;;;;;5068880;28;20870;-74
2023/07/24 04:14:23;;;;;;;11.70;4.35;;;18.50;1.00;;;;;;5064841;28;20404;-74
2023/07/24 04:16:49;;;;;;;10.70;4.55;;;18.50;1.00;;;;;;5066961;28;20470;-73
2023/07/24 04:19:14;;;;;;;17.17;4.70;;;18.60;1.00;;;;;;5066038;28;20394;-74
2023/07/24 04:21:40;;;;;;;12.20;4.20;;;18.70;1.00;;;;;;5069052;28;20418;-73
2023/07/24 04:24:05;;;;;;;9.00;3.60;;;18.80;1.00;;;;;;5069605;28;20657;-74
2023/07/24 04:26:31;;;;;;;9.70;3.80;;;18.90;1.00;;;;;;5068902;28;20392;-74
2023/07/24 04:28:56;;;;;;;12.30;4.07;;;18.90;1.00;;;;;;5069551;28;20415;-74
2023/07/24 04:31:22;;;;;;;10.63;3.93;;;18.90;1.00;;;;;;5069565;28;20929;-74
2023/07/24 04:33:47;;;;;;;10.63;3.40;;;19.00;1.00;;;;;;5069924;28;20463;-73
2023/07/24 04:36:13;;;;;;;11.23;3.97;;;18.90;1.00;;;;;;5070651;28;20419;-73
2023/07/24 04:38:38;;;;;;;11.90;4.22;;;18.80;1.00;;;;;;5070061;28;20394;-74
2023/07/24 04:41:04;;;;;;;11.63;4.20;;;18.80;1.00;;;;;;5065624;28;20985;-74
2023/07/24 04:43:29;;;;;;;12.20;4.57;;;18.80;4.50;;;;;;5067615;28;20399;-74
2023/07/24 04:45:55;;;;;;;12.27;4.40;;;19.00;15.90;;;;;;5069194;28;20394;-74
2023/07/24 04:48:21;;;;;;;13.70;5.73;;;19.00;15.40;;;;;;5067805;28;20408;-74
2023/07/24 04:50:46;;;;;;;12.00;4.80;;;19.20;1.60;;;;;;5069599;28;20935;-74
2023/07/24 04:53:12;;;;;;;13.07;5.40;;;19.30;1.30;;;;;;5069707;28;20400;-74
2023/07/24 04:55:38;;;;;;;10.40;4.00;;;19.20;25.30;;;;;;5058955;28;20381;-75
2023/07/24 04:58:03;;;;;;;14.80;4.35;;;19.30;21.30;;;;;;5034051;28;21626;-74
2023/07/24 05:00:29;;;;;;;12.10;4.70;;;19.40;4.70;;;;;;5060429;28;20404;-75
2023/07/24 05:02:54;;;;;;;10.87;4.73;;;19.50;1.00;;;;;;5067741;28;20916;-74
2023/07/24 05:05:20;;;;;;;11.40;3.80;;;19.50;1.00;;;;;;5061470;28;20404;-74
2023/07/24 05:07:45;;;;;;;12.23;4.75;;;19.70;1.00;;;;;;5064474;28;20514;-73
2023/07/24 05:10:13;;;;;;;11.60;3.90;;;19.80;1.00;;;;;;5072538;28;20478;-75
2023/07/24 05:12:41;;;;;;;12.70;4.80;;;19.80;1.00;;;;;;5073165;28;20383;-73
2023/07/24 05:15:07;;;;;;;10.63;4.00;;;20.00;1.00;;;;;;5073213;28;20820;-74
2023/07/24 05:17:32;;;;;;;13.38;4.63;;;19.90;1.00;;;;;;5084228;28;20430;-74
2023/07/24 05:19:58;;;;;;;11.07;3.90;;;19.90;1.00;;;;;;5073514;28;20760;-74
2023/07/24 05:22:23;;;;;;;12.00;4.90;;;19.80;1.00;;;;;;5072364;28;20384;-67
2023/07/24 05:24:49;;;;;;;10.67;4.50;;;19.80;1.00;;;;;;5071925;28;20388;-68
2023/07/24 05:27:15;;;;;;;11.80;4.93;;;19.80;1.00;;;;;;5072164;28;20423;-69
2023/07/24 05:29:41;;;;;;;10.65;4.07;;;19.90;1.00;;;;;;5071466;28;20421;-68
2023/07/24 05:32:07;;;;;;;11.80;4.40;;;19.90;1.00;;;;;;5074041;28;20455;-68
2023/07/24 05:34:32;;;;;;;10.50;4.35;;;19.80;1.00;;;;;;5071284;28;20498;-67
2023/07/24 05:36:58;;;;;;;13.47;4.80;;;19.80;1.00;;;;;;5072783;28;20749;-67
2023/07/24 05:39:23;;;;;;;12.00;5.10;;;19.80;1.00;;;;;;5072039;28;20391;-67
2023/07/24 05:41:49;;;;;;;11.47;4.87;;;19.90;1.00;;;;;;5072309;28;20407;-67
2023/07/24 05:44:14;;;;;;;13.00;4.50;;;20.00;1.00;;;;;;5072306;28;20468;-67
2023/07/24 05:46:40;;;;;;;13.07;4.40;;;19.90;1.00;;;;;;5072595;28;20372;-68
2023/07/24 05:49:05;;;;;;;11.47;4.60;;;20.00;1.00;;;;;;5072462;28;20416;-68
2023/07/24 05:51:31;;;;;;;14.30;5.03;;;20.10;1.00;;;;;;5072146;28;20422;-68
2023/07/24 05:53:56;;;;;;;11.73;4.37;;;20.20;1.00;;;;;;5071801;28;20939;-67
2023/07/24 05:56:22;;;;;;;12.30;4.47;;;20.10;1.00;;;;;;5072787;28;20388;-67
2023/07/24 06:01:22;;;;;;;13.30;4.03;;;20.00;1.00;;;;;;4531140;22;20416;-69
2023/07/24 06:03:48;;;;;;;15.10;5.33;;;20.10;1.00;;;;;;5072307;28;21783;-66
2023/07/24 06:06:14;;;;;;;13.20;4.50;;;20.10;1.00;;;;;;5077268;28;20440;-67
2023/07/24 06:08:39;;;;;;;13.05;4.65;;;20.20;1.00;;;;;;5088419;28;20410;-67
2023/07/24 06:11:06;;;;;;;11.90;4.97;;;20.30;1.00;;;;;;5071593;28;20982;-67
2023/07/24 06:13:32;;;;;;;11.50;4.60;;;20.20;1.00;;;;;;5058286;28;20394;-67
2023/07/24 06:15:57;;;;;;;11.60;4.70;;;20.30;1.00;;;;;;5090418;28;20397;-67
2023/07/24 06:18:23;;;;;;;10.60;4.27;;;20.50;1.00;;;;;;5091157;28;20787;-67
2023/07/24 06:20:52;;;;;;;11.97;4.70;;;20.60;1.00;;;;;;5091023;28;20484;-67
2023/07/24 06:23:18;;;;;;;13.63;4.97;;;20.70;1.00;;;;;;5075482;28;20376;-68
2023/07/24 06:25:43;;;;;;;12.95;4.28;;;20.90;99.90;;;;;;5070895;28;20903;-68
2023/07/24 06:28:09;;;;;;;11.63;4.00;;;21.00;99.90;;;;;;5070568;28;20541;-68
2023/07/24 06:30:35;;;;;;;10.93;4.30;;;21.10;99.90;;;;;;5070140;28;20376;-69
2023/07/24 06:33:00;;;;;;;14.38;5.68;;;21.10;99.90;;;;;;5071094;28;20419;-67
2023/07/24 06:35:26;;;;;;;11.33;4.27;;;21.00;99.90;;;;;;5071355;28;20935;-67
2023/07/24 06:37:51;;;;;;;13.37;4.50;;;21.00;99.90;;;;;;5070871;28;20387;-67
2023/07/24 06:40:17;;;;;;;11.77;4.60;;;21.10;99.90;;;;;;5085198;28;20398;-67
2023/07/24 06:42:42;;;;;;;12.50;4.40;;;21.20;99.40;;;;;;5090665;28;20761;-68
2023/07/24 06:45:08;;;;;;;12.40;4.60;;;21.30;65.90;;;;;;5089783;28;20390;-68
2023/07/24 06:47:33;;;;;;;13.73;4.50;;;21.30;99.90;;;;;;5090976;28;20925;-68
2023/07/24 06:49:59;;;;;;;15.93;5.77;;;21.40;99.90;;;;;;5090732;28;20519;-68
2023/07/24 06:52:24;;;;;;;11.10;4.60;;;21.50;99.90;;;;;;5090759;28;20393;-68
2023/07/24 06:54:50;;;;;;;14.60;4.63;;;21.60;1.00;;;;;;5090585;28;20886;-68
2023/07/24 06:57:15;;;;;;;11.43;4.53;;;21.80;1.00;;;;;;5090073;28;20394;-68
2023/07/24 06:59:41;;;;;;;13.27;5.30;;;21.90;99.90;;;;;;5090375;28;20425;-68
2023/07/24 07:02:07;;;;;;;12.75;5.20;;;21.70;1.00;;;;;;5089610;28;20406;-67
2023/07/24 07:04:32;;;;;;;13.50;4.65;;;21.70;1.00;;;;;;5090432;28;20401;-68
2023/07/24 07:06:58;;;;;;;12.90;5.28;;;21.60;1.00;;;;;;5090419;28;20378;-68
2023/07/24 07:09:23;;;;;;;13.55;4.35;;;21.60;1.00;;;;;;5089994;28;20463;-68
2023/07/24 07:11:49;;;;;;;12.35;4.80;;;21.80;1.00;;;;;;5090114;28;20474;-68
2023/07/24 07:14:14;;;;;;;11.57;4.77;;;21.90;1.00;;;;;;5076453;28;20383;-68
2023/07/24 07:16:40;;;;;;;11.33;5.17;;;22.00;99.90;;;;;;5069344;28;20399;-68
2023/07/24 07:19:09;;;;;;;12.00;4.57;;;22.20;99.90;;;;;;5069503;28;20391;-68
2023/07/24 07:21:34;;;;;;;11.43;3.95;;;22.10;1.00;;;;;;5069680;28;20387;-68
2023/07/24 07:24:00;;;;;;;11.70;4.50;;;21.70;99.90;;;;;;5069940;28;20400;-68
2023/07/24 07:26:26;;;;;;;11.27;4.27;;;21.70;99.90;;;;;;5069350;28;20888;-68
2023/07/24 07:28:51;;;;;;;12.55;4.95;;;21.70;99.90;;;;;;5069023;28;20426;-68
2023/07/24 07:31:17;;;;;;;10.05;4.07;;;21.80;1.00;;;;;;5068225;28;20392;-68
2023/07/24 07:33:42;;;;;;;11.55;4.50;;;21.60;37.90;;;;;;5069115;28;20494;-67
2023/07/24 07:36:08;;;;;;;14.05;4.65;;;21.70;1.00;;;;;;5069250;28;20384;-67
2023/07/24 07:38:33;;;;;;;10.75;4.10;;;21.70;99.90;;;;;;5069578;28;20858;-67
2023/07/24 07:41:03;;;;;;;12.48;4.90;;;21.70;1.00;;;;;;5068903;28;20395;-67
2023/07/24 07:43:29;;;;;;;11.68;4.45;;;21.70;1.00;;;;;;5069171;28;20380;-67
2023/07/24 07:45:56;;;;;;;13.30;4.90;;;21.80;99.90;;;;;;5068785;28;20388;-67
2023/07/24 07:48:22;;;;;;;12.30;4.60;;;21.80;99.90;;;;;;5069039;28;20407;-67
2023/07/24 07:50:53;;;;;;;10.77;4.80;;;21.70;1.00;;;;;;5069098;28;20899;-68
2023/07/24 07:53:19;;;;;;;14.25;4.97;;;21.70;1.00;;;;;;5068809;28;20763;-67
2023/07/24 07:55:45;;;;;;;10.70;4.20;;;21.70;99.90;;;;;;5069438;28;20395;-68
2023/07/24 07:58:10;;;;;;;11.30;4.27;;;21.80;91.40;;;;;;5068985;28;20388;-68
2023/07/24 08:00:38;;;;;;;12.83;5.47;;;21.90;99.90;;;;;;5068441;28;20390;-68
2023/07/24 08:03:03;;;;;;;12.35;4.80;;;21.80;75.80;;;;;;5069370;28;20375;-68
2023/07/24 08:05:29;;;;;;;13.30;4.60;;;21.70;1.00;;;;;;5068961;28;20836;-67
2023/07/24 08:07:54;;;;;;;14.38;5.50;;;21.60;1.00;;;;;;5068946;28;20419;-67
2023/07/24 08:10:20;;;;;;;12.60;4.68;;;21.40;1.00;;;;;;5069369;28;20403;-67
2023/07/24 08:12:45;;;;;;;11.55;4.65;;;21.30;99.90;;;;;;5070224;28;20400;-67
2023/07/24 08:15:11;;;;;;;10.50;4.03;;;21.20;99.90;;;;;;5069857;28;20729;-67
2023/07/24 08:17:37;;;;;;;11.30;4.55;;;21.20;99.90;;;;;;5068803;28;20380;-68
2023/07/24 08:20:03;;;;;;;11.70;4.13;;;21.10;99.90;;;;;;5070773;28;20434;-67
2023/07/24 08:22:28;;;;;;;13.45;4.20;;;21.10;99.90;;;;;;5070630;28;20396;-67
2023/07/24 08:24:54;;;;;;;11.27;4.57;;;21.10;99.90;;;;;;5071651;28;21557;-67
2023/07/24 08:27:19;;;;;;;12.75;4.75;;;21.00;99.90;;;;;;5070865;28;20414;-67
2023/07/24 08:29:45;;;;;;;11.85;4.43;;;20.70;1.00;;;;;;5071071;28;21016;-67
2023/07/24 08:32:10;;;;;;;11.10;3.95;;;20.80;99.90;;;;;;5071061;28;20395;-67
2023/07/24 08:34:36;;;;;;;12.10;4.10;;;20.80;1.00;;;;;;5070749;28;20384;-68
2023/07/24 08:37:01;;;;;;;14.30;4.70;;;20.90;1.00;;;;;;5070236;28;20442;-67
2023/07/24 08:39:27;;;;;;;10.73;4.30;;;20.90;1.00;;;;;;5069323;28;20406;-67
2023/07/24 08:41:52;;;;;;;10.50;4.37;;;21.00;1.00;;;;;;5050518;28;20480;-67
2023/07/24 08:44:18;;;;;;;14.53;4.87;;;21.10;99.90;;;;;;5068954;28;20610;-66
2023/07/24 08:46:45;;;;;;;13.23;4.67;;;21.20;99.90;;;;;;5068540;28;20388;-67
2023/07/24 08:49:14;;;;;;;13.65;4.60;;;21.40;99.90;;;;;;5068230;28;20502;-67
2023/07/24 08:51:41;;;;;;;10.93;4.55;;;21.60;99.90;;;;;;5068325;28;20368;-67
2023/07/24 08:54:08;;;;;;;14.05;5.00;;;21.90;99.90;;;;;;5068240;28;20415;-67
2023/07/24 08:56:33;;;;;;;12.55;4.22;;;22.00;99.90;;;;;;5068484;28;20495;-67
2023/07/24 08:58:59;;;;;;;13.73;4.68;;;22.10;1.00;;;;;;5068192;28;20474;-67
2023/07/24 09:01:25;;;;;;;13.60;5.30;;;22.30;1.00;;;;;;5068000;28;20908;-67
2023/07/24 09:03:50;;;;;;;10.87;4.40;;;22.40;1.00;;;;;;5068078;28;20375;-67
2023/07/24 09:06:16;;;;;;;16.47;5.77;;;22.40;1.00;;;;;;5067950;28;20386;-67
2023/07/24 09:08:43;;;;;;;10.83;3.80;;;22.60;1.00;;;;;;5067845;28;20498;-67
2023/07/24 09:11:13;;;;;;;13.75;5.60;;;22.70;1.00;;;;;;5067480;28;20396;-66
2023/07/24 09:13:41;;;;;;;12.43;4.60;;;22.80;99.90;;;;;;5073048;28;20416;-67
2023/07/24 09:16:07;;;;;;;12.73;5.30;;;22.90;99.90;;;;;;5049234;28;20750;-67
2023/07/24 09:18:43;;;;;;;11.07;4.60;;;23.10;99.90;;;;;;5065533;28;20400;-66
2023/07/24 09:21:12;;;;;;;14.05;5.18;;;23.40;1.00;;;;;;5067622;28;20603;-67
2023/07/24 09:23:40;;;;;;;9.80;4.28;;;24.00;1.00;;;;;;5068225;28;20391;-67
2023/07/24 09:26:07;;;;;;;13.45;5.00;;;24.70;1.00;;;;;;5062229;28;20482;-67
2023/07/24 09:28:34;;;;;;;13.88;4.45;;;25.20;1.00;;;;;;5054542;28;20476;-67
2023/07/24 09:31:00;;;;;;;11.13;4.60;;;25.00;1.00;;;;;;5063835;28;20407;-67
2023/07/24 09:33:36;;;;;;;13.70;4.85;;;24.90;26.50;;;;;;5067870;28;20538;-67
2023/07/24 09:36:03;;;;;;;16.25;5.65;;;25.00;99.90;;;;;;5067020;28;20438;-66
2023/07/24 09:38:29;;;;;;;11.68;4.28;;;25.10;1.00;;;;;;5066944;28;20411;-66
2023/07/24 09:40:57;;;;;;;10.60;4.67;;;24.60;99.90;;;;;;5048599;28;21022;-67
2023/07/24 09:43:25;;;;;;;12.85;4.93;;;23.90;1.00;;;;;;5067618;28;20388;-67
2023/07/24 09:45:52;;;;;;;11.18;4.20;;;23.70;1.00;;;;;;5066810;28;20488;-67
2023/07/24 09:48:20;;;;;;;12.73;4.80;;;23.60;99.90;;;;;;5064238;28;20819;-67
2023/07/24 09:50:47;;;;;;;11.53;4.97;;;23.30;1.00;;;;;;5066924;28;20430;-67
2023/07/24 09:53:39;;;;;;;13.17;4.50;;;23.10;1.00;;;;;;5067114;28;20395;-67
2023/07/24 09:56:08;;;;;;;12.40;4.20;;;23.10;99.90;;;;;;5058106;28;20393;-68
2023/07/24 09:58:36;;;;;;;12.38;4.20;;;23.10;99.90;;;;;;5057350;28;20415;-67
2023/07/24 10:01:06;;;;;;;12.40;4.50;;;23.10;1.00;;;;;;5057479;28;20425;-67
2023/07/24 10:03:49;;;;;;;11.73;4.03;;;23.10;1.00;;;;;;5063489;28;20399;-67
2023/07/24 10:06:16;;;;;;;11.48;4.30;;;23.00;16.30;;;;;;5071081;28;20864;-67
2023/07/24 10:08:43;;;;;;;10.23;3.95;;;23.10;99.90;;;;;;5069705;28;20418;-67
2023/07/24 10:11:13;;;;;;;10.23;4.10;;;22.80;99.90;;;;;;5070712;28;20422;-67
2023/07/24 10:13:40;;;;;;;12.97;4.10;;;22.60;99.90;;;;;;5070847;28;20394;-67
2023/07/24 10:16:06;;;;;;;9.82;3.65;;;22.30;99.90;;;;;;5070794;28;20380;-67
2023/07/24 10:18:34;;;;;;;11.02;3.90;;;22.30;1.00;;;;;;5070537;28;20384;-67
2023/07/24 10:21:00;;;;;;;10.10;3.60;;;22.30;1.00;;;;;;5071393;28;20396;-67
2023/07/24 10:23:27;;;;;;;9.43;3.45;;;22.30;1.00;;;;;;5070580;28;20441;-67
2023/07/24 10:25:52;;;;;;;8.80;3.15;;;22.50;1.00;;;;;;5070342;28;20387;-67
2023/07/24 10:28:18;;;;;;;11.17;3.77;;;22.50;99.90;;;;;;5070181;28;20424;-67
2023/07/24 10:30:44;;;;;;;9.90;3.67;;;22.40;99.90;;;;;;5070332;28;20387;-67
2023/07/24 10:33:11;;;;;;;10.13;3.75;;;22.30;1.00;;;;;;5069780;28;20468;-67
2023/07/24 10:35:41;;;;;;;11.50;4.28;;;22.20;1.00;;;;;;5070479;28;20510;-67
2023/07/24 10:38:07;;;;;;;9.95;3.45;;;22.20;1.00;;;;;;5070176;28;20388;-67
2023/07/24 10:40:33;;;;;;;9.97;3.33;;;22.10;1.00;;;;;;5070577;28;20394;-67
2023/07/24 10:43:06;;;;;;;10.57;4.05;;;22.00;1.00;;;;;;5070191;28;20430;-67
2023/07/24 10:45:52;;;;;;;8.60;3.50;;;22.10;1.00;;;;;;5070729;28;20395;-67
2023/07/24 10:48:19;;;;;;;11.35;4.57;;;22.10;1.00;;;;;;5070024;28;20403;-67
2023/07/24 10:50:47;;;;;;;10.80;3.50;;;22.00;1.00;;;;;;5069138;28;20457;-67
2023/07/24 10:53:17;;;;;;;9.47;4.27;;;22.00;1.00;;;;;;5069760;28;20807;-67
2023/07/24 10:55:43;;;;;;;9.50;4.18;;;21.70;1.00;;;;;;5068229;28;20399;-67
2023/07/24 10:58:09;;;;;;;10.38;3.33;;;21.50;1.00;;;;;;5069835;28;20398;-66
2023/07/24 11:00:35;;;;;;;10.00;3.95;;;21.40;1.00;;;;;;5069603;28;20391;-67
2023/07/24 11:03:01;;;;;;;12.45;4.10;;;21.40;1.00;;;;;;5069349;28;20407;-67
2023/07/24 11:05:27;;;;;;;12.30;3.30;;;21.30;1.00;;;;;;5069651;28;20372;-66
2023/07/24 11:07:52;;;;;;;8.93;3.20;;;21.10;25.90;;;;;;5069183;28;20396;-67
2023/07/24 11:10:22;;;;;;;10.93;4.43;;;21.00;30.40;;;;;;5069002;28;20400;-66
2023/07/24 11:12:48;;;;;;;10.18;4.32;;;20.70;59.00;;;;;;5070789;28;20384;-66
2023/07/24 11:15:14;;;;;;;12.17;4.33;;;20.60;88.80;;;;;;5089701;28;20457;-66
2023/07/24 11:17:41;;;;;;;9.88;4.00;;;20.60;99.90;;;;;;5089783;28;20386;-67
2023/07/24 11:20:11;;;;;;;10.85;4.10;;;20.60;99.90;;;;;;5072877;28;20411;-67
2023/07/24 11:22:41;;;;;;;10.90;4.30;;;20.60;99.90;;;;;;5068965;28;20403;-67
2023/07/24 11:25:08;;;;;;;9.38;3.83;;;20.70;99.90;;;;;;5063671;28;20385;-67
2023/07/24 11:27:38;;;;;;;9.27;4.22;;;20.70;91.80;;;;;;5049374;28;20412;-66
2023/07/24 11:30:05;;;;;;;10.90;4.25;;;20.70;99.10;;;;;;5059576;28;20399;-67
2023/07/24 11:32:30;;;;;;;10.20;3.50;;;20.60;92.90;;;;;;5069491;28;20384;-67
2023/07/24 11:34:56;;;;;;;11.60;3.80;;;20.70;84.60;;;;;;5068805;28;20926;-67
2023/07/24 11:37:22;;;;;;;10.55;3.92;;;20.70;50.50;;;;;;5069035;28;20479;-67
2023/07/24 11:40:09;;;;;;;10.63;3.30;;;20.70;47.60;;;;;;5067985;28;20399;-67
2023/07/24 11:42:39;;;;;;;10.00;3.42;;;20.70;16.90;;;;;;5068965;28;20403;-67
2023/07/24 11:45:05;;;;;;;13.88;3.80;;;20.80;12.80;;;;;;5069601;28;20387;-67
2023/07/24 11:47:31;;;;;;;11.70;4.10;;;20.90;39.30;;;;;;5068618;28;20906;-67
2023/07/24 11:49:58;;;;;;;10.48;4.30;;;21.30;33.10;;;;;;5067495;28;20408;-67
2023/07/24 11:52:24;;;;;;;10.45;3.55;;;21.80;1.00;;;;;;5062875;28;20407;-67
2023/07/24 11:55:03;;;;;;;9.88;3.75;;;21.90;1.00;;;;;;5067672;28;20387;-67
2023/07/24 11:57:28;;;;;;;9.85;3.90;;;22.00;1.00;;;;;;5068339;28;20468;-66
2023/07/24 11:59:56;;;;;;;8.90;3.33;;;22.00;1.00;;;;;;5058166;28;20385;-67
2023/07/24 12:02:22;;;;;;;9.30;3.20;;;21.80;1.00;;;;;;5058595;28;20516;-67
2023/07/24 12:04:57;;;;;;;8.60;3.40;;;21.80;1.00;;;;;;5067619;28;20411;-67
2023/07/24 12:07:45;;;;;;;10.75;3.80;;;21.80;1.00;;;;;;5068133;28;20419;-66
2023/07/24 12:10:12;;;;;;;12.10;3.30;;;21.60;1.00;;;;;;5068492;28;20399;-67
2023/07/24 12:12:44;;;;;;;9.60;3.30;;;21.40;1.00;;;;;;5068627;28;20403;-67
2023/07/24 12:15:11;;;;;;;8.85;3.13;;;21.20;1.00;;;;;;5063988;28;20477;-67
2023/07/24 12:17:37;;;;;;;9.03;3.60;;;21.10;1.00;;;;;;5069387;28;20392;-67
2023/07/24 12:20:05;;;;;;;7.72;2.90;;;21.10;1.00;;;;;;5068684;28;20387;-67
2023/07/24 12:22:31;;;;;;;8.02;3.05;;;20.90;1.00;;;;;;5068939;28;20407;-67
2023/07/24 12:24:57;;;;;;;8.13;3.20;;;21.00;1.00;;;;;;5066304;28;20438;-67
2023/07/24 12:27:24;;;;;;;9.38;3.63;;;21.10;1.00;;;;;;5064817;28;20396;-68
2023/07/24 12:29:51;;;;;;;8.57;3.13;;;21.00;1.00;;;;;;5060674;28;20434;-68
2023/07/24 12:32:16;;;;;;;9.38;3.95;;;21.10;1.00;;;;;;5067156;28;20383;-68
2023/07/24 12:34:42;;;;;;;9.60;3.73;;;21.20;1.00;;;;;;5067889;28;20760;-67
2023/07/24 12:37:07;;;;;;;12.00;3.57;;;21.10;1.00;;;;;;5063815;28;20911;-67
2023/07/24 12:39:33;;;;;;;9.57;3.20;;;21.00;1.00;;;;;;5063602;28;20413;-67
2023/07/24 12:41:58;;;;;;;8.50;3.03;;;21.00;1.00;;;;;;5050002;28;20396;-67